Time;durP1;ratioP1;P1;durP2;ratioP2;P2;SDS_P1;SDS_P2;PMS_P1;PMS_P2;Temp;Humidity;BMP_temperature;BMP_pressure;BME280_temperature;BME280_humidity;BME280_pressure;Samples;Min_cycle;Max_cycle;Signal;HPM_P1;HPM_P2
2022/01/21 00:01:33;;;;;;;7.53;0.93;;;2.00;99.90;;;;;;5094256;28;20042;-58
2022/01/21 00:03:59;;;;;;;4.90;0.57;;;2.00;99.90;;;;;;5093235;28;20107;-58
2022/01/21 00:06:25;;;;;;;7.95;1.05;;;2.10;99.90;;;;;;5094237;28;20059;-58
2022/01/21 00:08:53;;;;;;;5.13;1.25;;;2.10;99.90;;;;;;5093676;28;20073;-58
2022/01/21 00:11:20;;;;;;;4.78;1.27;;;2.20;99.90;;;;;;5094270;28;20024;-58
2022/01/21 00:13:45;;;;;;;4.95;1.13;;;2.10;99.90;;;;;;5094060;28;20024;-58
2022/01/21 00:16:14;;;;;;;6.72;0.77;;;2.10;99.90;;;;;;5092580;28;20054;-58
2022/01/21 00:18:45;;;;;;;6.80;0.98;;;2.20;99.90;;;;;;5094122;28;20020;-58
2022/01/21 00:32:09;;;;;;;1.88;0.68;;;2.10;99.90;;;;;;5093233;28;20124;-59
2022/01/21 00:34:35;;;;;;;5.15;0.63;;;2.00;99.90;;;;;;5093898;28;20035;-59
2022/01/21 00:37:01;;;;;;;9.85;1.27;;;2.00;99.90;;;;;;5093095;28;20036;-59
2022/01/21 00:39:30;;;;;;;8.38;1.55;;;2.10;99.90;;;;;;5093374;28;20020;-59
2022/01/21 00:42:04;;;;;;;3.17;1.00;;;2.20;99.90;;;;;;5093493;28;20401;-58
2022/01/21 00:44:30;;;;;;;15.38;1.50;;;2.20;99.90;;;;;;5092897;28;20474;-59
2022/01/21 00:46:55;;;;;;;8.50;1.17;;;2.30;99.90;;;;;;5093749;28;20024;-58
2022/01/21 00:49:21;;;;;;;5.78;1.75;;;2.40;99.90;;;;;;5093528;28;20501;-59
2022/01/21 00:51:48;;;;;;;4.22;1.20;;;2.50;99.90;;;;;;5092832;28;20465;-59
2022/01/21 00:54:13;;;;;;;10.25;1.63;;;2.50;99.90;;;;;;5093300;28;20028;-58
2022/01/21 00:56:39;;;;;;;2.10;0.82;;;2.60;99.90;;;;;;5093246;28;20101;-58
2022/01/21 00:59:05;;;;;;;6.85;0.93;;;2.70;99.90;;;;;;5092433;28;20121;-58
2022/01/21 01:01:30;;;;;;;8.93;0.73;;;2.70;99.90;;;;;;5093353;28;20032;-58
2022/01/21 01:03:56;;;;;;;5.88;1.55;;;2.70;99.90;;;;;;5093299;28;20032;-58
2022/01/21 01:06:22;;;;;;;8.45;1.35;;;2.70;99.90;;;;;;5092232;28;20102;-58
2022/01/21 01:08:49;;;;;;;3.97;0.73;;;2.70;99.90;;;;;;5093234;28;20294;-58
2022/01/21 01:11:21;;;;;;;25.40;1.10;;;2.70;99.90;;;;;;5093200;28;20024;-58
2022/01/21 01:22:14;;;;;;;4.20;0.60;;;2.80;99.90;;;;;;5058245;28;20190;-58
2022/01/21 01:29:59;;;;;;;2.67;0.95;;;2.70;99.90;;;;;;5093359;28;20043;-58
2022/01/21 01:32:27;;;;;;;11.60;1.70;;;2.80;99.90;;;;;;5092734;28;20024;-58
2022/01/21 01:34:53;;;;;;;9.68;0.90;;;2.80;99.90;;;;;;5092115;28;20111;-58
2022/01/21 01:50:46;;;;;;;3.67;1.17;;;2.80;99.90;;;;;;5092501;28;20433;-58
2022/01/21 01:53:13;;;;;;;5.57;1.42;;;2.80;99.90;;;;;;5092942;28;20024;-58
2022/01/21 01:55:39;;;;;;;3.97;0.57;;;2.70;99.90;;;;;;5091605;28;20081;-58
2022/01/21 01:58:05;;;;;;;8.07;1.00;;;2.80;99.90;;;;;;5092160;28;20032;-58
2022/01/21 02:00:31;;;;;;;12.60;1.17;;;2.80;99.90;;;;;;5092572;28;20032;-58
2022/01/21 02:03:08;;;;;;;1.42;0.52;;;2.80;99.90;;;;;;5090861;28;20031;-58
2022/01/21 02:05:34;;;;;;;1.90;0.85;;;2.80;99.90;;;;;;5092418;28;20548;-58
2022/01/21 02:07:59;;;;;;;1.90;0.88;;;2.80;99.90;;;;;;5091879;28;20032;-58
2022/01/21 02:10:25;;;;;;;6.57;0.85;;;2.80;99.90;;;;;;5091419;28;20060;-58
2022/01/21 02:13:02;;;;;;;3.00;0.70;;;2.80;99.90;;;;;;5092052;28;20028;-58
2022/01/21 02:15:27;;;;;;;11.25;0.80;;;2.80;99.90;;;;;;5091235;28;20123;-58
2022/01/21 02:23:21;;;;;;;7.57;0.90;;;2.80;99.90;;;;;;5091364;28;20201;-58
2022/01/21 02:25:47;;;;;;;7.47;0.90;;;2.80;99.90;;;;;;5092203;28;20550;-58
2022/01/21 02:28:15;;;;;;;3.55;0.93;;;2.70;99.90;;;;;;5091465;28;20778;-58
2022/01/21 02:30:52;;;;;;;8.43;0.60;;;2.70;99.90;;;;;;5091166;28;20051;-58
2022/01/21 02:33:18;;;;;;;8.45;1.13;;;2.70;99.90;;;;;;5091703;28;20073;-58
2022/01/21 02:35:43;;;;;;;2.30;0.60;;;2.70;99.90;;;;;;5092017;28;20075;-58
2022/01/21 02:38:09;;;;;;;2.05;0.57;;;2.80;99.90;;;;;;5090986;28;20048;-58
2022/01/21 02:40:35;;;;;;;6.18;1.17;;;2.80;99.90;;;;;;5091611;28;20116;-56
2022/01/21 02:43:00;;;;;;;1.95;0.77;;;2.80;99.90;;;;;;5091667;28;20024;-56
2022/01/21 02:45:26;;;;;;;5.82;1.35;;;2.90;99.90;;;;;;5090793;28;20025;-56
2022/01/21 02:47:51;;;;;;;1.27;0.45;;;2.90;99.90;;;;;;5092020;28;20398;-56
2022/01/21 02:50:17;;;;;;;0.73;0.50;;;2.80;99.90;;;;;;5091279;28;20032;-56
2022/01/21 02:52:55;;;;;;;0.65;0.35;;;2.80;99.90;;;;;;5091116;28;20024;-56
2022/01/21 02:55:22;;;;;;;;;;;2.80;99.90;;;;;;5092652;28;20044;-56
2022/01/21 02:57:47;;;;;;;0.43;0.40;;;2.80;99.90;;;;;;5090913;28;19904;-57
2022/01/21 03:00:13;;;;;;;0.20;0.20;;;2.80;99.90;;;;;;5091699;28;20642;-56
2022/01/21 03:02:39;;;;;;;1.15;0.38;;;2.70;99.90;;;;;;5091774;28;20498;-56
2022/01/21 03:05:11;;;;;;;4.45;0.70;;;2.70;99.90;;;;;;5091040;28;20047;-56
2022/01/21 03:07:37;;;;;;;7.88;0.98;;;2.60;99.90;;;;;;5091657;28;20043;-56
2022/01/21 03:10:04;;;;;;;1.23;0.40;;;2.60;99.90;;;;;;5091694;28;20040;-56
2022/01/21 03:12:30;;;;;;;5.28;0.52;;;2.70;99.90;;;;;;5090708;28;20147;-57
2022/01/21 03:14:56;;;;;;;4.45;0.40;;;2.70;99.90;;;;;;5094135;28;20107;-57
2022/01/21 03:17:21;;;;;;;3.45;0.40;;;2.80;99.90;;;;;;5095207;28;20024;-57
2022/01/21 03:19:47;;;;;;;1.30;0.65;;;2.80;99.90;;;;;;5094649;28;20028;-57
2022/01/21 03:22:13;;;;;;;5.07;0.82;;;2.80;99.90;;;;;;5094551;28;20024;-57
2022/01/21 03:24:39;;;;;;;7.53;0.50;;;2.80;99.90;;;;;;5095407;28;20058;-57
2022/01/21 03:27:04;;;;;;;1.95;0.40;;;2.80;99.90;;;;;;5094373;28;20479;-57
2022/01/21 03:29:30;;;;;;;0.93;0.50;;;2.80;99.90;;;;;;5095239;28;20028;-58
2022/01/21 03:31:56;;;;;;;1.20;0.50;;;2.90;99.90;;;;;;5095174;28;20078;-57
2022/01/21 03:34:22;;;;;;;0.03;0.03;;;2.90;99.90;;;;;;5094384;28;20032;-58
2022/01/21 03:36:49;;;;;;;8.27;0.93;;;2.90;99.90;;;;;;5094593;28;20116;-58
2022/01/21 03:39:16;;;;;;;3.83;0.32;;;2.90;99.90;;;;;;5094909;28;20035;-57
2022/01/21 03:41:41;;;;;;;0.60;0.32;;;2.90;99.90;;;;;;5093917;28;20035;-57
2022/01/21 03:44:07;;;;;;;0.43;0.43;;;2.90;99.90;;;;;;5094909;28;20028;-57
2022/01/21 03:46:33;;;;;;;5.20;0.50;;;2.90;99.90;;;;;;5095413;28;20450;-57
2022/01/21 03:48:58;;;;;;;8.40;0.60;;;2.90;99.90;;;;;;5094080;28;20110;-58
2022/01/21 03:51:24;;;;;;;3.38;0.75;;;2.90;99.90;;;;;;5094268;28;20031;-57
2022/01/21 03:53:50;;;;;;;3.58;0.30;;;2.90;99.90;;;;;;5094014;28;20094;-57
2022/01/21 03:56:16;;;;;;;0.65;0.45;;;2.90;99.90;;;;;;5094144;28;20024;-58
2022/01/21 03:58:42;;;;;;;1.02;0.40;;;3.00;99.90;;;;;;5094144;28;20031;-58
2022/01/21 04:01:08;;;;;;;0.40;0.40;;;2.90;99.90;;;;;;5093721;28;20335;-58
2022/01/21 04:03:34;;;;;;;0.22;0.20;;;2.90;99.90;;;;;;5094648;28;20082;-58
2022/01/21 04:06:00;;;;;;;0.68;0.30;;;2.90;99.90;;;;;;5094115;28;20039;-57
2022/01/21 04:08:25;;;;;;;0.93;0.40;;;2.90;99.90;;;;;;5093398;28;20024;-58
2022/01/21 04:10:51;;;;;;;1.60;0.50;;;2.90;99.90;;;;;;5094570;28;20028;-58
2022/01/21 04:13:19;;;;;;;6.72;0.70;;;2.90;99.90;;;;;;5093894;28;20047;-58
2022/01/21 04:15:47;;;;;;;12.43;0.75;;;2.90;99.90;;;;;;5093593;28;20036;-58
2022/01/21 04:18:13;;;;;;;;;;;2.80;99.90;;;;;;5094573;28;20035;-58
2022/01/21 04:20:39;;;;;;;2.17;0.45;;;2.80;99.90;;;;;;5094077;28;19908;-59
2022/01/21 04:23:05;;;;;;;2.60;0.95;;;2.80;99.90;;;;;;5093224;28;20102;-58
2022/01/21 04:25:31;;;;;;;4.97;0.70;;;2.80;99.90;;;;;;5093417;28;20050;-58
2022/01/21 04:27:56;;;;;;;0.32;0.20;;;2.70;99.90;;;;;;5094017;28;20030;-58
2022/01/21 04:30:22;;;;;;;1.60;0.40;;;2.70;99.90;;;;;;5093357;28;20420;-59
2022/01/21 04:32:47;;;;;;;0.57;0.40;;;2.60;99.90;;;;;;5093674;28;20482;-59
2022/01/21 04:35:13;;;;;;;1.40;0.50;;;2.60;99.90;;;;;;5093409;28;20040;-59
2022/01/21 04:37:45;;;;;;;2.10;0.60;;;2.60;99.90;;;;;;5092754;28;20394;-58
2022/01/21 04:40:14;;;;;;;6.47;0.52;;;2.70;99.90;;;;;;5093785;28;20375;-58
2022/01/21 04:48:09;;;;;;;0.65;0.25;;;2.70;99.90;;;;;;5093815;28;20043;-58
2022/01/21 04:50:53;;;;;;;0.75;0.32;;;2.70;99.90;;;;;;5093016;28;20017;-59
2022/01/21 04:53:19;;;;;;;5.60;1.25;;;2.70;99.90;;;;;;5093666;28;20489;-58
2022/01/21 04:55:45;;;;;;;3.17;0.45;;;2.80;99.90;;;;;;5093793;28;20032;-58
2022/01/21 04:58:10;;;;;;;2.30;0.52;;;2.80;99.90;;;;;;5092609;28;20387;-58
2022/01/21 05:00:36;;;;;;;0.40;0.28;;;2.80;99.90;;;;;;5093373;28;20032;-58
2022/01/21 05:03:01;;;;;;;1.65;0.43;;;2.70;99.90;;;;;;5093220;28;20028;-59
2022/01/21 05:05:27;;;;;;;1.98;0.50;;;2.80;99.90;;;;;;5092630;28;20020;-59
2022/01/21 05:07:54;;;;;;;0.10;0.10;;;2.70;99.90;;;;;;5093345;28;20032;-58
2022/01/21 05:10:20;;;;;;;0.90;0.57;;;2.70;99.90;;;;;;5093092;28;20028;-58
2022/01/21 05:12:46;;;;;;;4.53;0.52;;;2.60;99.90;;;;;;5092237;28;20035;-59
2022/01/21 05:15:18;;;;;;;6.07;0.98;;;2.60;99.90;;;;;;5092666;28;20494;-58
2022/01/21 05:17:48;;;;;;;8.07;0.40;;;2.60;99.90;;;;;;5092924;28;20032;-58
2022/01/21 05:20:14;;;;;;;5.57;0.70;;;2.50;99.90;;;;;;5092548;28;20483;-58
2022/01/21 05:22:40;;;;;;;8.48;1.35;;;2.50;99.90;;;;;;5092998;28;20028;-58
2022/01/21 05:25:06;;;;;;;1.48;0.38;;;2.40;99.90;;;;;;5092697;28;20461;-59
2022/01/21 05:27:32;;;;;;;2.70;0.85;;;2.40;99.90;;;;;;5092119;28;20028;-58
2022/01/21 05:29:58;;;;;;;6.88;0.98;;;2.40;99.90;;;;;;5092674;28;20111;-58
2022/01/21 05:32:23;;;;;;;1.85;0.65;;;2.40;99.90;;;;;;5092283;28;20604;-59
2022/01/21 05:34:49;;;;;;;5.85;0.65;;;2.40;99.90;;;;;;5093071;28;20012;-58
2022/01/21 05:37:15;;;;;;;3.63;0.43;;;2.40;99.90;;;;;;5092328;28;20107;-58
2022/01/21 05:39:40;;;;;;;5.47;1.02;;;2.40;99.90;;;;;;5092255;28;20051;-58
2022/01/21 05:42:07;;;;;;;1.42;0.60;;;2.50;99.90;;;;;;5092699;28;20042;-58
2022/01/21 05:47:00;;;;;;;0.77;0.45;;;2.60;99.90;;;;;;5091206;28;20474;-59
2022/01/21 05:49:29;;;;;;;6.25;0.57;;;2.50;99.90;;;;;;5092465;28;20012;-58
2022/01/21 05:52:03;;;;;;;;;;;2.60;99.90;;;;;;5092683;28;20027;-59
2022/01/21 05:54:28;;;;;;;5.55;0.60;;;2.60;99.90;;;;;;5091788;28;19915;-59
2022/01/21 05:56:54;;;;;;;6.28;1.13;;;2.60;99.90;;;;;;5092093;28;20115;-59
2022/01/21 05:59:20;;;;;;;10.30;1.35;;;2.70;99.90;;;;;;5092597;28;20115;-59
2022/01/21 06:01:46;;;;;;;10.00;1.10;;;2.60;99.90;;;;;;5091860;28;20047;-58
2022/01/21 06:04:12;;;;;;;3.38;0.77;;;2.60;99.90;;;;;;5092272;28;20028;-59
2022/01/21 06:06:37;;;;;;;4.45;0.70;;;2.60;99.90;;;;;;5092614;28;20027;-59
2022/01/21 06:09:04;;;;;;;1.75;0.63;;;2.60;99.90;;;;;;5091517;28;20153;-59
2022/01/21 06:11:30;;;;;;;4.57;0.88;;;2.60;99.90;;;;;;5092218;28;20027;-59
2022/01/21 06:13:55;;;;;;;3.58;0.80;;;2.70;99.90;;;;;;5091367;28;20031;-59
2022/01/21 06:16:21;;;;;;;8.77;1.20;;;2.70;99.90;;;;;;5091241;28;20036;-59
2022/01/21 06:18:47;;;;;;;5.18;0.90;;;2.80;99.90;;;;;;5091843;28;20137;-59
2022/01/21 06:21:13;;;;;;;0.52;0.52;;;2.80;99.90;;;;;;5092349;28;20032;-59
2022/01/21 06:23:38;;;;;;;5.75;0.52;;;2.90;99.90;;;;;;5091001;28;20326;-59
2022/01/21 06:26:04;;;;;;;4.72;0.88;;;2.90;99.90;;;;;;5091401;28;20044;-59
2022/01/21 06:28:30;;;;;;;7.55;0.75;;;2.90;99.90;;;;;;5091720;28;20024;-59
2022/01/21 06:30:56;;;;;;;3.40;0.80;;;2.80;99.90;;;;;;5091087;28;20020;-59
2022/01/21 06:33:21;;;;;;;7.30;1.25;;;2.80;99.90;;;;;;5091797;28;20025;-59
2022/01/21 06:35:49;;;;;;;2.60;1.00;;;2.80;99.90;;;;;;5091083;28;20072;-59
2022/01/21 06:38:14;;;;;;;1.83;0.38;;;2.80;99.90;;;;;;5091613;28;20028;-59
2022/01/21 06:40:40;;;;;;;5.55;0.68;;;2.80;99.90;;;;;;5092284;28;20074;-59
2022/01/21 06:43:05;;;;;;;3.75;0.60;;;2.90;99.90;;;;;;5090556;28;20023;-58
2022/01/21 06:45:31;;;;;;;4.43;1.15;;;2.90;99.90;;;;;;5092226;28;20035;-57
2022/01/21 06:47:58;;;;;;;2.95;1.17;;;2.90;99.90;;;;;;5092936;28;20042;-57
2022/01/21 06:50:27;;;;;;;6.45;1.30;;;2.90;99.90;;;;;;5094437;28;20028;-57
2022/01/21 06:52:52;;;;;;;2.22;0.60;;;2.90;99.90;;;;;;5095643;28;20027;-58
2022/01/21 06:55:18;;;;;;;2.40;0.98;;;2.90;99.90;;;;;;5095931;28;20028;-58
2022/01/21 06:57:44;;;;;;;5.22;1.10;;;2.90;99.90;;;;;;5094420;28;20089;-58
2022/01/21 07:00:16;;;;;;;2.65;0.50;;;2.90;99.90;;;;;;5095777;28;20024;-58
2022/01/21 07:02:42;;;;;;;4.45;1.77;;;2.80;99.90;;;;;;5095339;28;20024;-59
2022/01/21 07:05:08;;;;;;;1.17;0.47;;;2.80;99.90;;;;;;5094672;28;20028;-58
2022/01/21 07:07:33;;;;;;;3.42;0.50;;;2.80;99.90;;;;;;5095617;28;20020;-58
2022/01/21 07:10:00;;;;;;;2.05;0.90;;;2.80;99.90;;;;;;5095588;28;20394;-59
2022/01/21 07:12:27;;;;;;;5.68;0.82;;;2.80;99.90;;;;;;5094892;28;20016;-59
2022/01/21 07:14:53;;;;;;;3.15;0.63;;;2.80;99.90;;;;;;5095522;28;20028;-59
2022/01/21 07:17:18;;;;;;;4.90;1.10;;;2.90;99.90;;;;;;5095199;28;20077;-59
2022/01/21 07:19:44;;;;;;;1.58;0.57;;;2.80;99.90;;;;;;5094934;28;20059;-59
2022/01/21 07:22:09;;;;;;;4.07;0.80;;;2.80;99.90;;;;;;5094669;28;20613;-58
2022/01/21 07:24:35;;;;;;;2.30;0.55;;;2.80;99.90;;;;;;5095113;28;20044;-59
2022/01/21 07:27:01;;;;;;;2.50;0.60;;;2.80;99.90;;;;;;5094608;28;20032;-59
2022/01/21 07:29:26;;;;;;;1.65;0.38;;;2.80;99.90;;;;;;5095022;28;20016;-59
2022/01/21 07:31:54;;;;;;;7.80;0.65;;;2.80;99.90;;;;;;5094155;28;20024;-59
2022/01/21 07:34:22;;;;;;;2.08;0.47;;;2.80;99.90;;;;;;5095271;28;20109;-59
2022/01/21 07:36:48;;;;;;;3.90;0.63;;;2.80;99.90;;;;;;5094988;28;20032;-59
2022/01/21 07:39:13;;;;;;;4.57;0.50;;;2.80;99.90;;;;;;5094230;28;20039;-59
2022/01/21 07:41:39;;;;;;;3.88;0.68;;;2.80;99.90;;;;;;5095289;28;20024;-59
2022/01/21 07:44:05;;;;;;;3.13;0.88;;;2.80;99.90;;;;;;5094619;28;20154;-59
2022/01/21 07:46:30;;;;;;;0.75;0.45;;;2.80;99.90;;;;;;5093939;28;20027;-59
2022/01/21 07:48:57;;;;;;;0.57;0.57;;;2.80;99.90;;;;;;5094876;28;20027;-59
2022/01/21 07:51:23;;;;;;;2.13;0.50;;;2.70;99.90;;;;;;5094589;28;20035;-59
2022/01/21 07:53:48;;;;;;;7.40;0.65;;;2.70;99.90;;;;;;5094000;28;20483;-58
2022/01/21 07:56:14;;;;;;;6.55;0.43;;;2.70;99.90;;;;;;5094888;28;20398;-59
2022/01/21 07:58:40;;;;;;;5.40;0.63;;;2.60;99.90;;;;;;5094703;28;20061;-59
2022/01/21 08:01:05;;;;;;;4.30;0.47;;;2.60;99.90;;;;;;5092737;28;20024;-59
2022/01/21 08:03:31;;;;;;;2.05;1.08;;;2.60;99.90;;;;;;5093956;28;20501;-59
2022/01/21 08:05:57;;;;;;;12.35;1.00;;;2.60;99.90;;;;;;5093936;28;20024;-59
2022/01/21 08:08:24;;;;;;;6.25;0.80;;;2.70;99.90;;;;;;5093247;28;20036;-59
2022/01/21 08:10:50;;;;;;;9.25;1.00;;;2.70;99.90;;;;;;5092632;28;20032;-59
2022/01/21 08:13:15;;;;;;;4.05;0.80;;;2.70;99.90;;;;;;5093894;28;20028;-59
2022/01/21 08:15:41;;;;;;;2.78;0.47;;;2.70;99.90;;;;;;5093130;28;20455;-59
2022/01/21 08:18:06;;;;;;;5.97;1.48;;;2.70;99.90;;;;;;5093686;28;20550;-59
2022/01/21 08:20:32;;;;;;;14.80;1.60;;;2.70;99.90;;;;;;5093459;28;20421;-59
2022/01/21 08:22:58;;;;;;;5.28;1.08;;;2.70;99.90;;;;;;5092839;28;20028;-59
2022/01/21 08:25:24;;;;;;;4.55;0.47;;;2.80;99.90;;;;;;5093811;28;20048;-59
2022/01/21 08:27:49;;;;;;;2.72;0.60;;;2.90;99.90;;;;;;5093554;28;20092;-59
2022/01/21 08:30:15;;;;;;;7.63;1.33;;;2.90;99.90;;;;;;5092898;28;20055;-59
2022/01/21 08:32:41;;;;;;;2.67;0.93;;;3.00;99.90;;;;;;5093742;28;20501;-59
2022/01/21 08:35:07;;;;;;;4.03;1.33;;;3.10;99.90;;;;;;5092533;28;20020;-59
2022/01/21 08:37:33;;;;;;;4.95;1.40;;;3.10;99.90;;;;;;5092851;28;20058;-59
2022/01/21 08:39:59;;;;;;;8.48;1.20;;;3.20;99.90;;;;;;5093278;28;20359;-59
2022/01/21 08:42:24;;;;;;;5.15;0.85;;;3.40;99.90;;;;;;5092023;28;20036;-59
2022/01/21 08:44:50;;;;;;;3.00;1.15;;;3.50;99.90;;;;;;5093196;28;20078;-59
2022/01/21 08:47:16;;;;;;;7.13;1.30;;;3.60;99.90;;;;;;5093154;28;20023;-60
2022/01/21 08:49:43;;;;;;;6.82;1.67;;;3.60;99.90;;;;;;5092490;28;20024;-59
2022/01/21 08:52:18;;;;;;;9.50;2.92;;;3.70;99.90;;;;;;5092610;28;20024;-59
2022/01/21 08:54:44;;;;;;;11.18;2.97;;;3.70;99.90;;;;;;5093461;28;20097;-59
2022/01/21 08:57:09;;;;;;;12.98;2.33;;;3.70;99.90;;;;;;5092198;28;20437;-60
2022/01/21 08:59:35;;;;;;;3.47;1.33;;;3.80;99.90;;;;;;5093028;28;20536;-59
2022/01/21 09:02:00;;;;;;;4.65;1.13;;;3.80;99.90;;;;;;5092688;28;20021;-60
2022/01/21 09:04:26;;;;;;;2.05;1.00;;;3.80;99.90;;;;;;5092309;28;20099;-59
2022/01/21 09:06:51;;;;;;;5.32;1.27;;;3.90;99.90;;;;;;5092803;28;20254;-59
2022/01/21 09:09:17;;;;;;;3.95;1.33;;;4.00;99.90;;;;;;5093012;28;20020;-59
2022/01/21 09:11:43;;;;;;;5.18;1.67;;;4.00;99.90;;;;;;5092293;28;20536;-59
2022/01/21 09:14:09;;;;;;;2.78;1.17;;;4.00;99.90;;;;;;5092349;28;20382;-59
2022/01/21 09:16:35;;;;;;;4.22;1.48;;;4.00;99.90;;;;;;5092721;28;20036;-59
2022/01/21 09:19:02;;;;;;;1.08;0.60;;;4.00;99.90;;;;;;5091774;28;20020;-59
2022/01/21 09:21:34;;;;;;;19.27;1.73;;;4.10;99.90;;;;;;5092803;28;20026;-59
2022/01/21 09:24:00;;;;;;;10.95;0.95;;;4.00;99.90;;;;;;5092481;28;20020;-59
2022/01/21 09:26:27;;;;;;;3.42;1.05;;;4.00;99.90;;;;;;5091715;28;20070;-59
2022/01/21 09:28:52;;;;;;;4.20;1.45;;;4.00;99.90;;;;;;5091146;28;20059;-59
2022/01/21 09:31:20;;;;;;;8.05;1.50;;;4.00;99.90;;;;;;5092461;28;20062;-59
2022/01/21 09:33:46;;;;;;;4.43;1.02;;;3.90;99.90;;;;;;5091507;28;20153;-59
2022/01/21 09:36:12;;;;;;;3.83;0.57;;;3.90;99.90;;;;;;5092059;28;20111;-59
2022/01/21 09:38:39;;;;;;;4.05;1.52;;;3.90;99.90;;;;;;5091729;28;20277;-59
2022/01/21 09:41:06;;;;;;;11.05;1.42;;;3.90;99.90;;;;;;5092051;28;20032;-59
2022/01/21 09:43:34;;;;;;;6.47;1.35;;;4.00;99.90;;;;;;5092074;28;20111;-60
2022/01/21 09:46:04;;;;;;;9.35;0.93;;;4.00;99.90;;;;;;5091340;28;20032;-60
2022/01/21 09:48:35;;;;;;;3.08;1.00;;;4.00;99.90;;;;;;5092150;28;20602;-59
2022/01/21 09:51:02;;;;;;;4.78;1.13;;;4.00;99.90;;;;;;5088936;28;20462;-59
2022/01/21 09:53:35;;;;;;;2.05;0.43;;;4.00;99.90;;;;;;5078078;28;20036;-59
2022/01/21 09:56:04;;;;;;;5.43;0.73;;;4.10;99.90;;;;;;5071727;28;20510;-59
2022/01/21 09:58:30;;;;;;;2.25;0.98;;;4.10;99.90;;;;;;5072478;28;20039;-59
2022/01/21 10:00:58;;;;;;;2.42;0.65;;;4.10;99.90;;;;;;5076516;28;20028;-59
2022/01/21 10:03:24;;;;;;;5.25;1.58;;;4.10;99.90;;;;;;5076825;28;20031;-59
2022/01/21 10:05:52;;;;;;;3.90;1.02;;;4.20;99.90;;;;;;5084696;28;20020;-59
2022/01/21 10:08:21;;;;;;;1.45;0.80;;;4.20;99.90;;;;;;5080461;28;20016;-59
2022/01/21 10:10:47;;;;;;;8.05;1.20;;;4.30;99.90;;;;;;5083641;28;20095;-59
2022/01/21 10:13:15;;;;;;;2.03;1.00;;;4.30;99.90;;;;;;5085440;28;20115;-59
2022/01/21 10:15:41;;;;;;;6.68;1.20;;;4.50;99.90;;;;;;5083365;28;20032;-59
2022/01/21 10:18:11;;;;;;;1.27;0.85;;;4.50;99.90;;;;;;5075958;28;20035;-59
2022/01/21 10:20:38;;;;;;;5.15;1.15;;;4.60;99.90;;;;;;5079213;28;20033;-59
2022/01/21 10:23:10;;;;;;;8.40;1.02;;;4.70;99.90;;;;;;5070047;28;20027;-59
2022/01/21 10:25:37;;;;;;;4.38;1.08;;;4.80;99.90;;;;;;5070823;28;20131;-59
2022/01/21 10:28:10;;;;;;;4.32;0.68;;;4.80;99.90;;;;;;5085939;28;20025;-58
2022/01/21 10:30:36;;;;;;;7.28;1.70;;;4.90;99.90;;;;;;5073802;28;20013;-58
2022/01/21 10:33:20;;;;;;;8.52;2.55;;;5.00;99.90;;;;;;5086126;28;20029;-57
2022/01/21 10:35:49;;;;;;;10.45;1.58;;;5.00;99.90;;;;;;5078017;28;20112;-56
2022/01/21 10:38:18;;;;;;;;;;;5.00;99.90;;;;;;5076923;28;20034;-57
2022/01/21 10:40:44;;;;;;;4.53;1.77;;;5.00;99.90;;;;;;5089880;28;20424;-57
2022/01/21 10:43:15;;;;;;;10.13;1.48;;;5.00;99.90;;;;;;5076989;28;20024;-57
2022/01/21 10:45:51;;;;;;;4.13;1.65;;;5.00;99.90;;;;;;5083028;28;20585;-56
2022/01/21 10:48:17;;;;;;;5.88;1.25;;;5.00;99.90;;;;;;5080437;28;20021;-57
2022/01/21 10:50:42;;;;;;;10.88;1.58;;;5.00;99.90;;;;;;5069492;28;20020;-56
2022/01/21 10:53:26;;;;;;;5.28;1.90;;;5.00;99.90;;;;;;5086904;28;20035;-57
2022/01/21 10:55:52;;;;;;;5.20;1.95;;;5.00;99.90;;;;;;5080306;28;20087;-57
2022/01/21 10:58:21;;;;;;;3.75;1.20;;;5.00;99.90;;;;;;5079890;28;20505;-57
2022/01/21 11:01:01;;;;;;;8.23;1.45;;;5.00;99.90;;;;;;5078969;28;20465;-57
2022/01/21 11:03:31;;;;;;;3.10;1.00;;;5.10;99.90;;;;;;5087397;28;20051;-57
2022/01/21 11:06:14;;;;;;;6.05;1.27;;;5.20;99.90;;;;;;5088584;28;20020;-58
2022/01/21 11:08:40;;;;;;;5.15;0.90;;;5.30;99.90;;;;;;5090891;28;20036;-57
2022/01/21 11:11:07;;;;;;;9.25;1.90;;;5.40;99.90;;;;;;5085668;28;20370;-57
2022/01/21 11:13:36;;;;;;;4.28;1.10;;;5.40;99.90;;;;;;5083185;28;20478;-58
2022/01/21 11:16:13;;;;;;;6.20;1.55;;;5.50;99.90;;;;;;5088710;28;20040;-57
2022/01/21 11:18:55;;;;;;;17.40;1.80;;;5.60;99.90;;;;;;5071224;28;20120;-57
2022/01/21 11:21:22;;;;;;;1.67;0.75;;;5.60;99.90;;;;;;5072361;28;20474;-57
2022/01/21 11:23:48;;;;;;;2.55;0.88;;;5.60;99.90;;;;;;5073616;28;20031;-57
2022/01/21 11:26:16;;;;;;;3.00;1.10;;;5.60;99.90;;;;;;5078408;28;20044;-57
2022/01/21 11:28:49;;;;;;;4.78;0.80;;;5.60;99.90;;;;;;5087345;28;20143;-57
2022/01/21 11:31:20;;;;;;;6.72;1.33;;;5.60;99.90;;;;;;5069279;28;20032;-57
2022/01/21 11:33:46;;;;;;;6.00;0.77;;;5.70;99.90;;;;;;5069764;28;20021;-58
2022/01/21 11:36:13;;;;;;;4.30;1.00;;;5.80;99.90;;;;;;5085493;28;20052;-58
2022/01/21 11:38:43;;;;;;;10.63;0.88;;;5.90;99.90;;;;;;5090422;28;20059;-57
2022/01/21 11:41:09;;;;;;;3.00;1.40;;;6.00;99.90;;;;;;5090104;28;20036;-57
2022/01/21 11:43:37;;;;;;;11.63;2.47;;;6.10;99.90;;;;;;5092330;28;20035;-57
2022/01/21 11:48:56;;;;;;;1.98;0.93;;;6.20;99.90;;;;;;5089437;28;20379;-56
2022/01/21 11:51:29;;;;;;;8.40;2.42;;;6.20;99.90;;;;;;5085820;28;20032;-57
2022/01/21 11:54:07;;;;;;;6.95;1.88;;;6.30;99.90;;;;;;5080137;28;20039;-57
2022/01/21 11:56:46;;;;;;;4.43;1.73;;;6.40;99.90;;;;;;5074001;28;20039;-57
2022/01/21 11:59:33;;;;;;;5.97;2.05;;;6.50;99.90;;;;;;5083807;28;20028;-57
2022/01/21 12:02:00;;;;;;;12.00;2.08;;;6.60;99.90;;;;;;5089646;28;20386;-57
2022/01/21 12:04:44;;;;;;;7.72;1.42;;;6.60;99.90;;;;;;5085382;28;20033;-57
2022/01/21 12:07:33;;;;;;;8.45;1.50;;;6.60;99.90;;;;;;5073481;28;20027;-58
2022/01/21 12:09:58;;;;;;;3.80;1.30;;;6.60;99.90;;;;;;5082660;28;20029;-57
2022/01/21 12:12:50;;;;;;;11.10;1.60;;;6.70;99.90;;;;;;5086830;28;20481;-57
2022/01/21 12:15:25;;;;;;;8.88;2.40;;;6.70;99.90;;;;;;5082808;28;20032;-57
2022/01/21 12:18:07;;;;;;;6.10;1.88;;;6.70;99.90;;;;;;5084015;28;20028;-57
2022/01/21 12:20:33;;;;;;;4.20;1.23;;;6.70;99.90;;;;;;5091426;28;20141;-57
2022/01/21 12:23:16;;;;;;;10.23;1.58;;;6.70;99.90;;;;;;5086921;28;20025;-57
2022/01/21 12:26:20;;;;;;;4.63;0.82;;;6.70;99.90;;;;;;5080319;28;20048;-57
2022/01/21 12:28:52;;;;;;;4.20;0.75;;;6.70;99.90;;;;;;5082922;28;20019;-57
2022/01/21 12:31:19;;;;;;;5.90;0.98;;;6.80;99.90;;;;;;5088798;28;20020;-57
2022/01/21 12:33:51;;;;;;;6.22;1.42;;;6.80;99.90;;;;;;5073806;28;20024;-57
2022/01/21 12:36:21;;;;;;;2.78;1.25;;;6.80;99.90;;;;;;5077292;28;20426;-57
2022/01/21 12:41:16;;;;;;;8.23;1.98;;;6.90;99.90;;;;;;5092328;28;20031;-57
2022/01/21 12:43:46;;;;;;;7.97;1.35;;;7.00;99.90;;;;;;5081960;28;20554;-57
2022/01/21 12:46:34;;;;;;;4.78;0.88;;;7.00;99.90;;;;;;5086518;28;20046;-57
2022/01/21 12:49:01;;;;;;;;;;;7.10;99.90;;;;;;5075581;28;20027;-57
2022/01/21 12:56:42;;;;;;;8.88;1.45;;;7.10;99.90;;;;;;5077014;28;20044;-58
2022/01/21 12:59:14;;;;;;;12.57;1.27;;;7.20;99.90;;;;;;5078732;28;20112;-57
2022/01/21 13:01:39;;;;;;;2.65;0.90;;;7.20;99.90;;;;;;5082105;28;20574;-58
2022/01/21 13:04:31;;;;;;;1.55;0.73;;;7.20;99.90;;;;;;5090565;28;20111;-57
2022/01/21 13:07:16;;;;;;;6.40;1.02;;;7.30;99.90;;;;;;5052200;28;20479;-57
2022/01/21 13:10:02;;;;;;;10.18;0.85;;;7.30;99.90;;;;;;5072765;28;20052;-57
2022/01/21 13:15:47;;;;;;;5.65;1.00;;;7.40;99.90;;;;;;5084678;28;20036;-58
2022/01/21 13:18:14;;;;;;;4.22;0.80;;;7.40;99.90;;;;;;5082568;28;20035;-58
2022/01/21 13:20:47;;;;;;;5.32;0.82;;;7.40;99.90;;;;;;5090854;28;20024;-58
2022/01/21 13:23:29;;;;;;;2.70;1.10;;;7.40;99.90;;;;;;5089303;28;20023;-58
2022/01/21 13:26:18;;;;;;;9.50;1.23;;;7.40;99.90;;;;;;5075915;28;20121;-58
2022/01/21 13:29:02;;;;;;;8.25;0.90;;;7.50;99.90;;;;;;5082837;28;20024;-58
2022/01/21 13:31:31;;;;;;;4.20;0.82;;;7.40;99.90;;;;;;5079047;28;20085;-57
2022/01/21 13:34:07;;;;;;;4.05;0.68;;;7.40;99.90;;;;;;5075021;28;20073;-57
2022/01/21 13:36:45;;;;;;;7.28;0.80;;;7.30;99.90;;;;;;5076262;28;20522;-57
2022/01/21 13:39:14;;;;;;;5.45;1.42;;;7.40;99.90;;;;;;5078178;28;20107;-58
2022/01/21 13:41:48;;;;;;;13.50;2.13;;;7.30;99.90;;;;;;5090428;28;20021;-57
2022/01/21 13:44:30;;;;;;;2.78;0.85;;;7.30;99.90;;;;;;5072203;28;20505;-58
2022/01/21 13:46:57;;;;;;;6.63;0.77;;;7.30;99.90;;;;;;5075777;28;20023;-58
2022/01/21 13:49:24;;;;;;;10.25;0.98;;;7.30;99.90;;;;;;5089854;28;20035;-58
2022/01/21 13:51:59;;;;;;;11.30;1.77;;;7.30;99.90;;;;;;5090768;28;20032;-58
2022/01/21 13:54:37;;;;;;;4.55;1.13;;;7.30;99.90;;;;;;5084948;28;20070;-58
2022/01/21 13:57:04;;;;;;;5.95;1.15;;;7.30;99.90;;;;;;5069909;28;20036;-58
2022/01/21 13:59:31;;;;;;;4.38;1.58;;;7.30;99.90;;;;;;5087875;28;20050;-58
2022/01/21 14:02:10;;;;;;;7.95;1.38;;;7.40;99.90;;;;;;5079479;28;21294;-58
2022/01/21 14:04:36;;;;;;;8.65;1.13;;;7.40;99.90;;;;;;5071671;28;20020;-58
2022/01/21 14:07:03;;;;;;;5.75;1.48;;;7.40;99.90;;;;;;5070504;28;20039;-58
2022/01/21 14:09:28;;;;;;;8.40;1.77;;;7.50;99.90;;;;;;5071654;28;20144;-58